createdAt,value
2023-05-23T00:01:48.058Z,13.40
2023-05-23T00:04:17.288Z,14.43
2023-05-23T00:06:46.986Z,11.38
2023-05-23T00:09:14.614Z,13.93
2023-05-23T00:11:45.170Z,14.77
2023-05-23T00:14:15.560Z,13.05
2023-05-23T00:16:44.183Z,13.05
2023-05-23T00:19:11.585Z,10.02
2023-05-23T00:21:38.344Z,10.88
2023-05-23T00:24:04.953Z,13.82
2023-05-23T00:26:32.216Z,15.20
2023-05-23T00:28:59.180Z,14.95
2023-05-23T00:31:25.778Z,9.43
2023-05-23T00:33:52.270Z,14.00
2023-05-23T00:36:19.139Z,14.70
2023-05-23T00:38:49.430Z,16.65
2023-05-23T00:43:42.720Z,11.02
2023-05-23T00:46:10.945Z,18.08
2023-05-23T00:48:38.827Z,12.02
2023-05-23T00:51:05.811Z,13.23
2023-05-23T00:53:33.498Z,11.80
2023-05-23T00:56:00.138Z,15.65
2023-05-23T00:58:26.768Z,14.00
2023-05-23T01:00:54.512Z,16.38
2023-05-23T01:03:21.290Z,12.98
2023-05-23T01:05:47.954Z,16.65
2023-05-23T01:08:15.809Z,12.77
2023-05-23T01:10:42.680Z,11.68
2023-05-23T01:13:30.970Z,10.35
2023-05-23T01:16:28.272Z,9.43
2023-05-23T01:19:20.695Z,7.97
2023-05-23T01:21:53.020Z,7.43
2023-05-23T01:24:36.320Z,6.63
2023-05-23T01:27:16.838Z,7.05
2023-05-23T01:29:47.096Z,8.48
2023-05-23T01:34:42.472Z,6.75
2023-05-23T01:37:10.782Z,8.90
2023-05-23T01:39:38.345Z,5.78
2023-05-23T01:42:05.748Z,6.15
2023-05-23T01:44:34.940Z,5.85
2023-05-23T01:47:04.151Z,6.43
2023-05-23T01:49:31.955Z,6.55
2023-05-23T01:52:00.882Z,7.05
2023-05-23T01:54:29.359Z,7.10
2023-05-23T01:57:00.678Z,7.53
2023-05-23T01:59:27.217Z,8.65
2023-05-23T02:01:53.742Z,6.90
2023-05-23T02:04:20.256Z,7.78
2023-05-23T02:06:47.475Z,7.47
2023-05-23T02:09:14.283Z,8.38
2023-05-23T02:11:40.799Z,10.05
2023-05-23T02:14:07.517Z,9.25
2023-05-23T02:16:36.527Z,10.02
2023-05-23T02:19:03.601Z,9.43
2023-05-23T02:21:34.200Z,11.23
2023-05-23T02:24:01.747Z,11.15
2023-05-23T02:26:28.256Z,11.85
2023-05-23T02:28:55.071Z,9.40
2023-05-23T02:31:21.643Z,8.90
2023-05-23T02:33:48.249Z,9.07
2023-05-23T02:36:14.707Z,12.07
2023-05-23T02:38:41.261Z,10.32
2023-05-23T02:41:07.758Z,9.77
2023-05-23T02:43:34.286Z,11.50
2023-05-23T02:46:00.927Z,8.90
2023-05-23T02:48:27.419Z,8.82
2023-05-23T02:50:54.204Z,8.80
2023-05-23T02:53:20.812Z,10.52
2023-05-23T02:55:47.309Z,8.80
2023-05-23T02:58:13.796Z,9.38
2023-05-23T03:00:40.299Z,9.05
2023-05-23T03:03:07.012Z,8.13
2023-05-23T03:05:33.514Z,11.77
2023-05-23T03:08:00.311Z,11.38
2023-05-23T03:10:26.815Z,8.82
2023-05-23T03:12:53.288Z,8.63
2023-05-23T03:15:19.913Z,11.00
2023-05-23T03:17:46.437Z,11.50
2023-05-23T03:20:13.021Z,10.38
2023-05-23T03:22:39.528Z,6.68
2023-05-23T03:25:06.614Z,12.68
2023-05-23T03:27:33.125Z,10.23
2023-05-23T03:29:59.568Z,12.00
2023-05-23T03:32:26.044Z,11.20
2023-05-23T03:34:52.714Z,12.10
2023-05-23T03:37:19.161Z,10.65
2023-05-23T03:39:45.714Z,13.25
2023-05-23T03:42:12.145Z,9.95
2023-05-23T03:44:38.650Z,10.68
2023-05-23T03:47:05.311Z,10.80
2023-05-23T03:49:31.800Z,12.93
2023-05-23T03:51:58.249Z,11.48
2023-05-23T03:54:24.691Z,8.15
2023-05-23T03:56:51.135Z,9.10
2023-05-23T03:59:18.836Z,11.70
2023-05-23T04:01:45.415Z,12.05
2023-05-23T04:04:11.902Z,10.63
2023-05-23T04:06:38.515Z,13.70
2023-05-23T04:09:06.218Z,10.55
2023-05-23T04:11:32.701Z,12.13
2023-05-23T04:13:59.122Z,11.85
2023-05-23T04:16:25.895Z,13.88
2023-05-23T04:18:52.489Z,11.65
2023-05-23T04:21:19.045Z,10.40
2023-05-23T04:23:46.091Z,11.80
2023-05-23T04:26:13.085Z,10.52
2023-05-23T04:28:40.059Z,11.68
2023-05-23T04:31:06.678Z,10.48
2023-05-23T04:33:34.256Z,9.30
2023-05-23T04:36:01.535Z,10.40
2023-05-23T04:38:28.015Z,9.60
2023-05-23T04:40:54.610Z,10.45
2023-05-23T04:43:21.905Z,9.18
2023-05-23T04:45:51.221Z,9.98
2023-05-23T04:48:21.602Z,14.88
2023-05-23T04:53:15.471Z,14.27
2023-05-23T04:55:42.177Z,14.48
2023-05-23T04:58:09.777Z,11.88
2023-05-23T05:00:36.306Z,15.73
2023-05-23T05:03:02.850Z,14.15
2023-05-23T05:05:29.422Z,13.15
2023-05-23T05:07:56.012Z,18.08
2023-05-23T05:10:22.570Z,13.68
2023-05-23T05:12:51.852Z,12.20
2023-05-23T05:15:18.771Z,13.75
2023-05-23T05:17:49.974Z,11.93
2023-05-23T05:20:17.410Z,13.10
2023-05-23T05:22:44.571Z,10.90
2023-05-23T05:25:11.786Z,13.23
2023-05-23T05:27:39.854Z,12.15
2023-05-23T05:30:08.901Z,13.23
2023-05-23T05:32:35.416Z,14.63
2023-05-23T05:35:03.257Z,14.52
2023-05-23T05:37:29.890Z,10.23
2023-05-23T05:39:56.849Z,16.55
2023-05-23T05:42:23.296Z,13.35
2023-05-23T05:44:50.322Z,12.75
2023-05-23T05:47:16.853Z,16.30
2023-05-23T05:49:43.278Z,17.27
2023-05-23T05:52:09.758Z,14.93
2023-05-23T05:54:36.304Z,17.23
2023-05-23T05:57:02.789Z,9.63
2023-05-23T05:59:31.117Z,13.18
2023-05-23T06:01:59.117Z,12.25
2023-05-23T06:04:25.962Z,15.52
2023-05-23T06:06:52.577Z,13.45
2023-05-23T06:09:19.047Z,13.52
2023-05-23T06:11:45.528Z,14.88
2023-05-23T06:14:12.016Z,11.70
2023-05-23T06:16:38.975Z,12.20
2023-05-23T06:19:06.155Z,15.52
2023-05-23T06:21:32.784Z,16.00
2023-05-23T06:23:59.292Z,13.10
2023-05-23T06:26:26.244Z,13.02
2023-05-23T06:28:52.743Z,12.38
2023-05-23T06:31:19.295Z,10.98
2023-05-23T06:33:45.837Z,14.95
2023-05-23T06:36:12.314Z,12.18
2023-05-23T06:38:38.810Z,14.95
2023-05-23T06:41:07.243Z,10.98
2023-05-23T06:43:33.911Z,10.95
2023-05-23T06:46:00.526Z,11.15
2023-05-23T06:48:27.093Z,12.18
2023-05-23T06:50:53.659Z,11.05
2023-05-23T06:53:20.287Z,10.65
2023-05-23T06:55:47.031Z,9.45
2023-05-23T06:58:13.589Z,10.88
2023-05-23T07:00:40.394Z,11.07
2023-05-23T07:03:07.310Z,8.93
2023-05-23T07:05:34.475Z,9.48
2023-05-23T07:08:01.070Z,10.48
2023-05-23T07:10:27.649Z,9.30
2023-05-23T07:12:54.194Z,8.82
2023-05-23T07:15:20.832Z,9.05
2023-05-23T07:17:47.388Z,10.75
2023-05-23T07:20:14.022Z,8.23
2023-05-23T07:22:40.479Z,11.70
2023-05-23T07:25:07.734Z,13.48
2023-05-23T07:27:35.055Z,13.02
2023-05-23T07:30:01.713Z,10.85
2023-05-23T07:32:28.188Z,15.38
2023-05-23T07:34:54.858Z,10.50
2023-05-23T07:37:21.346Z,13.80
2023-05-23T07:39:49.037Z,15.95
2023-05-23T07:42:15.603Z,15.32
2023-05-23T07:44:42.447Z,14.98
2023-05-23T07:47:08.983Z,18.08
2023-05-23T07:49:35.824Z,20.88
2023-05-23T07:52:02.486Z,21.45
2023-05-23T07:54:28.991Z,17.35
2023-05-23T07:56:55.794Z,16.63
2023-05-23T07:59:22.726Z,21.13
2023-05-23T08:01:50.680Z,18.05
2023-05-23T08:04:18.221Z,26.08
2023-05-23T08:07:00.970Z,22.67
2023-05-23T08:09:31.903Z,23.30
2023-05-23T08:11:58.444Z,24.30
2023-05-23T08:14:31.753Z,20.17
2023-05-23T08:17:05.187Z,16.40
2023-05-23T08:19:31.838Z,20.58
2023-05-23T08:21:58.345Z,21.65
2023-05-23T08:24:24.882Z,23.80
2023-05-23T08:26:51.422Z,20.58
2023-05-23T08:29:18.600Z,19.88
2023-05-23T08:31:45.271Z,20.10
2023-05-23T08:34:11.931Z,22.30
2023-05-23T08:36:39.765Z,17.73
2023-05-23T08:39:06.361Z,19.27
2023-05-23T08:41:34.671Z,21.85
2023-05-23T08:44:01.567Z,14.90
2023-05-23T08:46:28.236Z,16.10
2023-05-23T08:48:55.873Z,13.25
2023-05-23T08:51:25.051Z,17.63
2023-05-23T08:53:53.637Z,22.42
2023-05-23T08:56:20.720Z,17.75
2023-05-23T08:58:47.937Z,20.23
2023-05-23T09:01:15.568Z,16.52
2023-05-23T09:03:42.519Z,19.23
2023-05-23T09:06:10.830Z,14.52
2023-05-23T09:08:37.815Z,20.25
2023-05-23T09:11:06.842Z,17.70
2023-05-23T09:13:34.397Z,22.83
2023-05-23T09:16:06.241Z,13.23
2023-05-23T09:18:42.710Z,14.18
2023-05-23T09:21:10.716Z,11.63
2023-05-23T09:23:40.218Z,13.02
2023-05-23T09:26:09.503Z,12.73
2023-05-23T09:28:37.804Z,14.82
2023-05-23T09:31:07.190Z,10.52
2023-05-23T09:33:49.343Z,14.13
2023-05-23T09:36:17.260Z,16.42
2023-05-23T09:38:46.235Z,16.95
2023-05-23T09:41:13.291Z,15.85
2023-05-23T09:43:42.634Z,14.52
2023-05-23T09:46:11.144Z,15.68
2023-05-23T09:48:38.272Z,13.65
2023-05-23T09:51:10.309Z,13.57
2023-05-23T09:53:37.359Z,16.60
2023-05-23T09:56:04.358Z,12.32
2023-05-23T09:58:32.963Z,14.82
2023-05-23T10:01:03.778Z,12.95
2023-05-23T10:03:35.672Z,12.45
2023-05-23T10:06:10.664Z,10.43
2023-05-23T10:08:42.287Z,11.65
2023-05-23T10:11:14.718Z,14.68
2023-05-23T10:13:44.765Z,10.68
2023-05-23T10:16:16.615Z,10.95
2023-05-23T10:18:53.099Z,11.27
2023-05-23T10:21:28.385Z,9.10
2023-05-23T10:23:55.725Z,9.55
2023-05-23T10:26:22.759Z,10.77
2023-05-23T10:28:49.983Z,11.65
2023-05-23T10:31:17.861Z,10.32
2023-05-23T10:33:53.013Z,10.25
2023-05-23T10:36:25.918Z,10.65
2023-05-23T10:39:02.246Z,11.32
2023-05-23T10:41:38.436Z,13.05
2023-05-23T10:44:16.816Z,12.00
2023-05-23T10:47:02.284Z,10.25
2023-05-23T10:49:42.465Z,8.30
2023-05-23T10:52:11.770Z,9.93
2023-05-23T10:54:48.731Z,12.70
2023-05-23T10:57:25.673Z,11.65
2023-05-23T10:59:52.431Z,10.13
2023-05-23T11:02:29.395Z,9.52
2023-05-23T11:05:18.631Z,13.90
2023-05-23T11:07:45.151Z,13.23
2023-05-23T11:10:14.100Z,10.88
2023-05-23T11:12:42.574Z,9.73
2023-05-23T11:15:18.133Z,11.88
2023-05-23T11:17:52.232Z,8.98
2023-05-23T11:20:24.463Z,10.60
2023-05-23T11:23:09.171Z,7.72
2023-05-23T11:25:48.812Z,11.75
2023-05-23T11:28:16.197Z,10.65
2023-05-23T11:30:43.105Z,9.88
2023-05-23T11:33:14.907Z,11.10
2023-05-23T11:35:42.005Z,8.65
2023-05-23T11:38:09.349Z,10.50
2023-05-23T11:40:37.398Z,13.05
2023-05-23T11:43:06.152Z,13.52
2023-05-23T11:45:34.073Z,13.45
2023-05-23T11:48:11.889Z,8.48
2023-05-23T11:50:51.873Z,8.38
2023-05-23T11:53:25.259Z,6.97
2023-05-23T11:55:57.791Z,6.72
2023-05-23T11:58:33.203Z,6.65
2023-05-23T12:01:07.464Z,7.82
2023-05-23T12:03:35.219Z,14.70
2023-05-23T12:06:02.283Z,8.00
2023-05-23T12:08:28.781Z,8.00
2023-05-23T12:10:59.984Z,12.43
2023-05-23T12:13:29.607Z,8.88
2023-05-23T12:16:01.146Z,7.80
2023-05-23T12:18:29.206Z,7.32
2023-05-23T12:20:59.435Z,9.40
2023-05-23T12:25:54.702Z,8.85
2023-05-23T12:28:22.048Z,8.63
2023-05-23T12:30:49.466Z,8.60
2023-05-23T12:33:18.685Z,8.45
2023-05-23T12:35:45.489Z,8.70
2023-05-23T12:38:16.405Z,12.55
2023-05-23T12:40:43.624Z,8.43
2023-05-23T12:43:11.177Z,9.15
2023-05-23T12:45:37.692Z,9.18
2023-05-23T12:48:05.364Z,11.50
2023-05-23T12:50:31.895Z,7.95
2023-05-23T12:52:58.942Z,11.68
2023-05-23T12:55:25.763Z,11.10
2023-05-23T12:57:52.256Z,8.73
2023-05-23T13:00:19.620Z,10.23
2023-05-23T13:02:46.614Z,14.35
2023-05-23T13:05:13.273Z,9.38
2023-05-23T13:07:39.748Z,10.10
2023-05-23T13:10:06.965Z,11.50
2023-05-23T13:12:34.362Z,11.50
2023-05-23T13:15:01.082Z,8.60
2023-05-23T13:17:28.429Z,7.47
2023-05-23T13:19:54.920Z,12.52
2023-05-23T13:22:21.438Z,11.05
2023-05-23T13:24:47.953Z,9.98
2023-05-23T13:27:14.465Z,11.52
2023-05-23T13:29:40.965Z,8.63
2023-05-23T13:32:08.106Z,11.55
2023-05-23T13:34:37.285Z,7.75
2023-05-23T13:37:04.409Z,11.52
2023-05-23T13:39:30.918Z,14.23
2023-05-23T13:41:57.445Z,9.98
2023-05-23T13:44:24.008Z,12.95
2023-05-23T13:46:50.611Z,13.55
2023-05-23T13:49:17.125Z,10.75
2023-05-23T13:51:44.310Z,12.82
2023-05-23T13:54:10.875Z,10.07
2023-05-23T13:56:39.780Z,12.00
2023-05-23T13:59:06.276Z,13.13
2023-05-23T14:01:32.809Z,9.50
2023-05-23T14:03:59.372Z,9.48
2023-05-23T14:06:25.835Z,13.10
2023-05-23T14:08:52.371Z,7.97
2023-05-23T14:11:18.894Z,8.65
2023-05-23T14:13:45.375Z,9.45
2023-05-23T14:16:11.956Z,9.85
2023-05-23T14:18:38.566Z,11.63
2023-05-23T14:21:05.042Z,11.13
2023-05-23T14:23:31.956Z,10.10
2023-05-23T14:25:58.521Z,11.77
2023-05-23T14:28:25.064Z,12.27
2023-05-23T14:30:51.551Z,14.82
2023-05-23T14:33:18.607Z,9.32
2023-05-23T14:35:45.426Z,9.10
2023-05-23T14:38:12.049Z,9.10
2023-05-23T14:40:38.599Z,12.55
2023-05-23T14:43:05.242Z,9.23
2023-05-23T14:45:32.114Z,9.32
2023-05-23T14:47:58.931Z,10.75
2023-05-23T14:50:26.812Z,10.00
2023-05-23T14:52:53.544Z,13.65
2023-05-23T14:55:20.158Z,7.78
2023-05-23T14:57:46.647Z,15.02
2023-05-23T15:00:13.645Z,10.75
2023-05-23T15:02:40.196Z,9.18
2023-05-23T15:05:07.715Z,6.70
2023-05-23T15:07:34.201Z,12.18
2023-05-23T15:10:01.981Z,12.00
2023-05-23T15:12:28.861Z,8.43
2023-05-23T15:15:03.081Z,9.55
2023-05-23T15:17:31.159Z,12.02
2023-05-23T15:19:57.761Z,10.98
2023-05-23T15:22:37.949Z,8.90
2023-05-23T15:25:07.295Z,10.07
2023-05-23T15:27:33.768Z,9.90
2023-05-23T15:30:00.281Z,8.43
2023-05-23T15:32:26.863Z,8.77
2023-05-23T15:34:53.611Z,9.00
2023-05-23T15:37:20.148Z,9.43
2023-05-23T15:39:47.149Z,6.97
2023-05-23T15:42:13.706Z,7.60
2023-05-23T15:44:40.256Z,8.68
2023-05-23T15:47:06.885Z,10.32
2023-05-23T15:49:34.949Z,10.05
2023-05-23T15:52:01.441Z,9.38
2023-05-23T15:54:27.950Z,8.02
2023-05-23T15:56:54.760Z,7.40
2023-05-23T15:59:21.288Z,14.25
2023-05-23T16:01:47.786Z,11.02
2023-05-23T16:04:14.566Z,9.65
2023-05-23T16:06:41.142Z,9.40
2023-05-23T16:09:07.666Z,12.27
2023-05-23T16:11:34.220Z,7.90
2023-05-23T16:14:00.770Z,7.78
2023-05-23T16:16:27.334Z,8.98
2023-05-23T16:18:53.948Z,14.00
2023-05-23T16:21:20.940Z,8.63
2023-05-23T16:23:50.907Z,5.32
2023-05-23T16:26:18.756Z,9.38
2023-05-23T16:28:45.485Z,11.10
2023-05-23T16:31:16.647Z,10.07
2023-05-23T16:33:44.578Z,13.52
2023-05-23T16:36:11.118Z,8.77
2023-05-23T16:38:37.567Z,9.13
2023-05-23T16:41:04.171Z,9.25
2023-05-23T16:43:30.659Z,10.00
2023-05-23T16:45:57.265Z,10.85
2023-05-23T16:48:23.821Z,11.20
2023-05-23T16:50:50.445Z,13.73
2023-05-23T16:53:16.962Z,10.35
2023-05-23T16:55:46.057Z,7.47
2023-05-23T16:58:12.744Z,9.75
2023-05-23T17:00:39.624Z,7.97
2023-05-23T17:03:06.316Z,7.38
2023-05-23T17:05:33.470Z,18.17
2023-05-23T17:08:01.420Z,10.10
2023-05-23T17:10:28.027Z,15.15
2023-05-23T17:12:54.483Z,9.32
2023-05-23T17:15:20.964Z,11.50
2023-05-23T17:17:47.761Z,14.38
2023-05-23T17:20:14.346Z,7.63
2023-05-23T17:22:41.781Z,8.05
2023-05-23T17:25:08.855Z,11.95
2023-05-23T17:27:35.357Z,8.57
2023-05-23T17:30:05.017Z,13.50
2023-05-23T17:32:31.756Z,9.98
2023-05-23T17:34:58.534Z,10.15
2023-05-23T17:37:26.401Z,8.50
2023-05-23T17:39:55.981Z,11.50
2023-05-23T17:42:23.954Z,11.88
2023-05-23T17:44:50.513Z,12.18
2023-05-23T17:47:18.475Z,10.07
2023-05-23T17:49:44.971Z,10.32
2023-05-23T17:52:14.767Z,7.60
2023-05-23T17:54:42.215Z,11.45
2023-05-23T17:57:08.758Z,12.00
2023-05-23T17:59:35.777Z,10.75
2023-05-23T18:02:04.591Z,14.15
2023-05-23T18:04:31.134Z,8.10
2023-05-23T18:06:57.713Z,8.80
2023-05-23T18:09:24.382Z,6.78
2023-05-23T18:11:51.246Z,9.43
2023-05-23T18:14:17.772Z,11.20
2023-05-23T18:16:44.244Z,11.63
2023-05-23T18:19:10.861Z,10.35
2023-05-23T18:21:37.950Z,7.60
2023-05-23T18:24:04.727Z,6.43
2023-05-23T18:26:31.483Z,12.90
2023-05-23T18:28:59.558Z,7.50
2023-05-23T18:31:26.044Z,12.30
2023-05-23T18:33:52.622Z,7.93
2023-05-23T18:36:19.358Z,6.22
2023-05-23T18:38:45.997Z,8.20
2023-05-23T18:41:14.733Z,13.70
2023-05-23T18:43:41.670Z,11.07
2023-05-23T18:46:08.244Z,6.90
2023-05-23T18:48:35.886Z,10.95
2023-05-23T18:51:02.619Z,9.68
2023-05-23T18:53:29.171Z,8.75
2023-05-23T18:55:55.668Z,11.68
2023-05-23T18:58:22.244Z,7.30
2023-05-23T19:00:49.069Z,6.70
2023-05-23T19:03:16.799Z,10.35
2023-05-23T19:05:43.566Z,9.05
2023-05-23T19:08:10.055Z,11.10
2023-05-23T19:10:36.750Z,7.68
2023-05-23T19:13:03.833Z,10.30
2023-05-23T19:15:30.475Z,7.57
2023-05-23T19:17:57.003Z,8.73
2023-05-23T19:20:23.540Z,9.82
2023-05-23T19:22:52.252Z,10.50
2023-05-23T19:25:20.337Z,6.68
2023-05-23T19:27:46.873Z,8.30
2023-05-23T19:30:13.467Z,5.60
2023-05-23T19:32:40.101Z,9.90
2023-05-23T19:35:06.935Z,11.77
2023-05-23T19:37:33.447Z,9.50
2023-05-23T19:40:00.752Z,10.98
2023-05-23T19:42:27.485Z,12.02
2023-05-23T19:44:53.947Z,10.02
2023-05-23T19:47:20.557Z,8.90
2023-05-23T19:49:47.153Z,10.70
2023-05-23T19:52:14.266Z,9.63
2023-05-23T19:54:41.026Z,7.03
2023-05-23T19:57:07.733Z,5.07
2023-05-23T19:59:34.285Z,12.13
2023-05-23T20:02:00.788Z,7.97
2023-05-23T20:04:28.459Z,6.90
2023-05-23T20:06:55.966Z,8.60
2023-05-23T20:09:23.128Z,8.63
2023-05-23T20:11:49.660Z,13.25
2023-05-23T20:14:16.165Z,11.82
2023-05-23T20:16:42.788Z,9.63
2023-05-23T20:19:10.002Z,10.30
2023-05-23T20:21:36.634Z,7.88
2023-05-23T20:24:03.395Z,12.60
2023-05-23T20:26:29.860Z,9.13
2023-05-23T20:28:56.420Z,9.75
2023-05-23T20:31:22.974Z,10.05
2023-05-23T20:33:49.843Z,9.10
2023-05-23T20:36:19.603Z,15.10
2023-05-23T20:38:46.740Z,10.70
2023-05-23T20:41:14.267Z,11.23
2023-05-23T20:43:40.867Z,8.10
2023-05-23T20:46:09.165Z,5.78
2023-05-23T20:48:35.872Z,7.63
2023-05-23T20:51:02.722Z,8.48
2023-05-23T20:53:29.977Z,9.93
2023-05-23T20:55:56.461Z,9.25
2023-05-23T20:58:23.213Z,7.25
2023-05-23T21:00:50.839Z,10.85
2023-05-23T21:03:18.082Z,7.53
2023-05-23T21:05:45.206Z,9.80
2023-05-23T21:08:11.754Z,8.98
2023-05-23T21:10:38.192Z,9.70
2023-05-23T21:13:04.702Z,11.02
2023-05-23T21:15:31.261Z,5.95
2023-05-23T21:17:57.779Z,5.13
2023-05-23T21:20:24.399Z,8.18
2023-05-23T21:22:51.144Z,9.30
2023-05-23T21:25:17.900Z,11.45
2023-05-23T21:27:44.392Z,8.13
2023-05-23T21:30:11.469Z,10.73
2023-05-23T21:32:38.134Z,7.97
2023-05-23T21:35:05.060Z,10.15
2023-05-23T21:37:31.533Z,16.33
2023-05-23T21:39:58.028Z,11.43
2023-05-23T21:42:25.533Z,7.30
2023-05-23T21:44:52.047Z,14.15
2023-05-23T21:47:20.039Z,8.38
2023-05-23T21:49:46.586Z,10.25
2023-05-23T21:52:13.111Z,7.07
2023-05-23T21:54:39.626Z,7.90
2023-05-23T21:57:06.149Z,13.90
2023-05-23T21:59:32.752Z,9.60
2023-05-23T22:02:00.267Z,6.80
2023-05-23T22:04:26.888Z,9.57
2023-05-23T22:06:53.543Z,13.68
2023-05-23T22:09:20.040Z,8.80
2023-05-23T22:11:46.509Z,5.68
2023-05-23T22:14:13.004Z,8.82
2023-05-23T22:16:39.740Z,9.48
2023-05-23T22:19:08.085Z,9.18
2023-05-23T22:21:34.902Z,10.98
2023-05-23T22:24:01.472Z,8.93
2023-05-23T22:26:28.232Z,12.57
2023-05-23T22:28:55.297Z,11.55
2023-05-23T22:31:22.137Z,13.65
2023-05-23T22:33:48.800Z,10.27
2023-05-23T22:36:15.662Z,10.20
2023-05-23T22:38:42.231Z,8.80
2023-05-23T22:41:08.691Z,8.38
2023-05-23T22:43:35.338Z,5.10
2023-05-23T22:46:01.879Z,6.88
2023-05-23T22:48:28.564Z,11.18
2023-05-23T22:50:55.112Z,9.75
2023-05-23T22:53:22.749Z,5.57
2023-05-23T22:55:49.873Z,5.70
2023-05-23T22:58:16.447Z,3.97
2023-05-23T23:00:43.669Z,8.57
2023-05-23T23:03:10.965Z,6.13
2023-05-23T23:05:37.628Z,5.28
2023-05-23T23:08:04.262Z,6.70
2023-05-23T23:10:30.745Z,5.15
2023-05-23T23:12:57.225Z,8.50
2023-05-23T23:15:24.805Z,5.35
2023-05-23T23:17:51.473Z,6.15
2023-05-23T23:20:19.435Z,7.20
2023-05-23T23:22:47.072Z,6.82
2023-05-23T23:25:14.199Z,7.70
2023-05-23T23:27:40.844Z,4.63
2023-05-23T23:30:08.135Z,6.75
2023-05-23T23:32:34.683Z,4.15
2023-05-23T23:35:01.359Z,4.85
2023-05-23T23:37:27.862Z,7.35
2023-05-23T23:39:54.335Z,6.85
2023-05-23T23:42:21.001Z,8.43
2023-05-23T23:44:47.474Z,5.72
2023-05-23T23:47:14.193Z,5.32
2023-05-23T23:49:41.767Z,8.07
2023-05-23T23:52:08.900Z,7.07
2023-05-23T23:54:35.484Z,8.80
2023-05-23T23:57:01.985Z,5.13
2023-05-23T23:59:31.359Z,5.38
